AIRPORT ID: 8D7

DATE: 2021-12-01 ZULU TIME: 8.58 LOCAL TIME: 2.58


METAR K8D7 010858Z AUTO 26004KT 02/M01 A2972

ALTIMETER: A2972 Q1006

DENSITY ALT: 1000 Ft

WIND DIRECT: 270

WIND SPEED: 4 Gust

WIND CONDITIONS:

VISIBILTY: Not Available

TEMPERATURE: 36 F 2 C

DEW POINT: 31 F -1 C

HUMID: 82%

LCL: 500-1,000 feet

RADIO CHECK: 0

ADVISARIES: 0

GREETINGS: 0

CONVERSATIONS: 0